createdAt,value
2024-01-09T00:02:15.855Z,512.39
2024-01-09T00:05:21.614Z,524.16
2024-01-09T00:08:29.182Z,483.17
2024-01-09T00:11:35.264Z,480.22
2024-01-09T00:14:41.750Z,459.41
2024-01-09T00:17:50.201Z,420.29
2024-01-09T00:20:56.913Z,414.12
2024-01-09T00:24:02.626Z,407.39
2024-01-09T00:27:09.117Z,395.28
2024-01-09T00:30:16.523Z,399.89
2024-01-09T00:33:25.926Z,402.28
2024-01-09T00:36:32.189Z,426.71
2024-01-09T00:39:38.784Z,424.27
2024-01-09T00:42:44.601Z,457.61
2024-01-09T00:45:51.263Z,459.63
2024-01-09T00:48:59.910Z,449.43
2024-01-09T00:52:07.751Z,438.31
2024-01-09T00:55:14.546Z,473.88
2024-01-09T00:58:21.222Z,512.73
2024-01-09T01:01:26.904Z,564.50
2024-01-09T01:04:36.017Z,577.60
2024-01-09T01:07:41.738Z,666.40
2024-01-09T01:10:48.225Z,827.76
2024-01-09T01:13:54.050Z,889.90
2024-01-09T01:17:00.562Z,638.41
2024-01-09T01:20:11.420Z,864.12
2024-01-09T01:23:17.996Z,633.85
2024-01-09T01:26:24.012Z,509.96
2024-01-09T01:29:31.660Z,529.09
2024-01-09T01:32:37.504Z,502.56
2024-01-09T01:35:46.942Z,482.88
2024-01-09T01:38:52.791Z,609.79
2024-01-09T01:42:01.477Z,594.03
2024-01-09T01:45:19.919Z,477.62
2024-01-09T01:48:26.752Z,559.02
2024-01-09T01:51:35.242Z,642.44
2024-01-09T01:54:45.220Z,628.34
2024-01-09T01:57:53.946Z,510.60
2024-01-09T02:01:00.577Z,482.02
2024-01-09T02:04:08.058Z,511.85
2024-01-09T02:07:17.306Z,514.93
2024-01-09T02:10:24.549Z,467.43
2024-01-09T02:13:31.130Z,502.54
2024-01-09T02:16:38.314Z,469.75
2024-01-09T02:19:44.134Z,415.60
2024-01-09T02:22:53.666Z,415.80
2024-01-09T02:26:07.052Z,413.65
2024-01-09T02:29:26.993Z,402.39
2024-01-09T02:32:39.042Z,406.77
2024-01-09T02:35:45.622Z,428.93
2024-01-09T02:38:51.373Z,443.72
2024-01-09T02:41:58.003Z,476.79
2024-01-09T02:45:03.788Z,475.89
2024-01-09T02:48:13.420Z,499.71
2024-01-09T02:51:19.233Z,486.44
2024-01-09T02:54:25.864Z,492.03
2024-01-09T02:57:31.564Z,466.71
2024-01-09T03:00:38.640Z,470.02
2024-01-09T03:03:47.298Z,466.76
2024-01-09T03:06:54.010Z,457.37
2024-01-09T03:10:00.050Z,467.73
2024-01-09T03:13:06.904Z,460.18
2024-01-09T03:16:14.917Z,467.89
2024-01-09T03:19:24.230Z,460.97
2024-01-09T03:22:30.451Z,498.47
2024-01-09T03:25:37.112Z,513.90
2024-01-09T03:28:43.046Z,502.47
2024-01-09T03:31:49.851Z,502.53
2024-01-09T03:34:58.143Z,517.63
2024-01-09T03:38:04.722Z,514.50
2024-01-09T03:41:10.545Z,530.25
2024-01-09T03:44:17.178Z,530.51
2024-01-09T03:47:23.059Z,523.96
2024-01-09T03:50:32.255Z,534.64
2024-01-09T03:53:37.951Z,500.34
2024-01-09T03:56:44.559Z,487.21
2024-01-09T03:59:50.311Z,512.46
2024-01-09T04:02:56.965Z,547.69
2024-01-09T04:06:06.501Z,576.57
2024-01-09T04:09:13.805Z,586.52
2024-01-09T04:12:19.556Z,595.31
2024-01-09T04:15:26.126Z,566.67
2024-01-09T04:18:32.161Z,560.45
2024-01-09T04:21:41.587Z,539.86
2024-01-09T04:24:47.393Z,509.79
2024-01-09T04:27:53.902Z,499.59
2024-01-09T04:30:59.875Z,496.80
2024-01-09T04:34:07.657Z,492.30
2024-01-09T04:37:16.219Z,487.91
2024-01-09T04:40:22.808Z,476.54
2024-01-09T04:43:28.524Z,468.04
2024-01-09T04:46:35.055Z,468.01
2024-01-09T04:49:41.033Z,473.10
2024-01-09T04:52:50.223Z,470.23
2024-01-09T04:55:55.848Z,458.78
2024-01-09T04:59:02.539Z,487.91
2024-01-09T05:02:08.191Z,475.75
2024-01-09T05:05:25.543Z,486.12
2024-01-09T05:08:35.870Z,525.46
2024-01-09T05:11:42.589Z,508.32
2024-01-09T05:15:03.445Z,551.42
2024-01-09T05:18:10.700Z,474.76
2024-01-09T05:21:28.785Z,474.06
2024-01-09T05:24:52.306Z,489.85
2024-01-09T05:27:59.080Z,539.68
2024-01-09T05:31:06.194Z,566.75
2024-01-09T05:34:12.971Z,586.51
2024-01-09T05:37:33.930Z,589.52
2024-01-09T05:40:56.532Z,703.96
2024-01-09T05:44:17.459Z,755.30
2024-01-09T05:47:24.038Z,726.03
2024-01-09T05:50:29.879Z,837.46
2024-01-09T05:53:36.481Z,663.02
2024-01-09T05:56:44.718Z,639.27
2024-01-09T05:59:51.428Z,602.54
2024-01-09T06:02:57.185Z,566.84
2024-01-09T06:06:03.781Z,489.94
2024-01-09T06:09:09.919Z,465.10
2024-01-09T06:12:19.462Z,452.04
2024-01-09T06:15:25.121Z,460.84
2024-01-09T06:18:31.855Z,466.34
2024-01-09T06:21:37.575Z,438.51
2024-01-09T06:24:44.116Z,434.03
2024-01-09T06:27:52.338Z,453.21
2024-01-09T06:30:58.944Z,571.50
2024-01-09T06:34:04.888Z,611.48
2024-01-09T06:37:11.359Z,594.95
2024-01-09T06:40:21.322Z,706.39
2024-01-09T06:43:30.624Z,679.97
2024-01-09T06:46:37.462Z,749.10
2024-01-09T06:49:43.955Z,863.10
2024-01-09T06:52:49.765Z,762.48
2024-01-09T06:55:56.267Z,667.66
2024-01-09T06:59:04.686Z,632.74
2024-01-09T07:02:11.302Z,605.49
2024-01-09T07:05:17.503Z,580.03
2024-01-09T07:08:24.141Z,598.42
2024-01-09T07:11:30.118Z,544.82
2024-01-09T07:14:39.646Z,480.51
2024-01-09T07:17:45.861Z,442.28
2024-01-09T07:20:52.576Z,441.73
2024-01-09T07:23:58.302Z,417.14
2024-01-09T07:27:04.811Z,398.73
2024-01-09T07:30:15.090Z,399.01
2024-01-09T07:33:21.719Z,392.49
2024-01-09T07:36:27.598Z,373.03
2024-01-09T07:39:34.685Z,373.00
2024-01-09T07:42:46.282Z,374.42
2024-01-09T07:46:04.805Z,397.02
2024-01-09T07:49:10.627Z,403.91
2024-01-09T07:52:17.238Z,403.66
2024-01-09T07:55:24.089Z,446.65
2024-01-09T07:58:30.981Z,448.67
2024-01-09T08:01:39.409Z,454.17
2024-01-09T08:04:45.965Z,420.77
2024-01-09T08:07:51.689Z,409.89
2024-01-09T08:10:58.228Z,368.06
2024-01-09T08:14:03.844Z,349.05
2024-01-09T08:17:13.279Z,302.85
2024-01-09T08:20:19.309Z,286.37
2024-01-09T08:23:27.178Z,285.96
2024-01-09T08:26:33.278Z,294.57
2024-01-09T08:29:39.873Z,302.64
2024-01-09T08:32:48.383Z,324.46
2024-01-09T08:35:55.139Z,313.91
2024-01-09T08:39:00.889Z,274.91
2024-01-09T08:42:08.217Z,265.27
2024-01-09T08:45:15.344Z,262.03
2024-01-09T08:48:24.927Z,263.42
2024-01-09T08:51:31.381Z,263.91
2024-01-09T08:54:38.013Z,254.52
2024-01-09T08:57:44.007Z,264.39
2024-01-09T09:00:50.779Z,261.41
2024-01-09T09:03:59.175Z,251.74
2024-01-09T09:07:05.983Z,241.09
2024-01-09T09:10:12.206Z,230.78
2024-01-09T09:13:18.711Z,241.53
2024-01-09T09:16:25.023Z,234.37
2024-01-09T09:19:34.308Z,235.72
2024-01-09T09:22:41.673Z,251.84
2024-01-09T09:25:49.419Z,250.75
2024-01-09T09:29:04.218Z,253.85
2024-01-09T09:32:18.711Z,264.05
2024-01-09T09:35:27.011Z,244.63
2024-01-09T09:38:34.702Z,236.84
2024-01-09T09:41:44.965Z,235.73
2024-01-09T09:44:56.439Z,230.67
2024-01-09T09:48:06.249Z,228.70
2024-01-09T09:51:15.747Z,230.70
2024-01-09T09:54:24.846Z,229.01
2024-01-09T09:57:31.708Z,228.72
2024-01-09T10:00:37.469Z,229.00
2024-01-09T10:03:59.009Z,224.43
2024-01-09T10:07:11.028Z,279.35
2024-01-09T10:10:18.575Z,280.65
2024-01-09T10:13:24.462Z,286.30
2024-01-09T10:16:31.837Z,569.86
2024-01-09T10:19:37.755Z,354.55
2024-01-09T10:22:47.153Z,448.64
2024-01-09T10:25:53.611Z,397.57
2024-01-09T10:29:03.307Z,247.54
2024-01-09T10:32:11.410Z,244.50
2024-01-09T10:35:18.092Z,293.65
2024-01-09T10:38:30.460Z,280.06
2024-01-09T10:41:37.911Z,268.17
2024-01-09T10:44:44.161Z,259.34
2024-01-09T10:47:54.270Z,234.08
2024-01-09T10:51:01.382Z,242.42
2024-01-09T10:54:15.826Z,208.02
2024-01-09T10:57:21.704Z,261.18
2024-01-09T11:00:32.399Z,593.43
2024-01-09T11:03:38.474Z,454.69
2024-01-09T11:06:50.483Z,218.54
2024-01-09T11:10:00.649Z,240.75
2024-01-09T11:13:12.546Z,242.96
2024-01-09T11:16:23.278Z,215.62
2024-01-09T11:19:32.531Z,193.69
2024-01-09T11:22:40.988Z,186.72
2024-01-09T11:25:54.875Z,179.41
2024-01-09T11:29:00.819Z,164.03
2024-01-09T11:32:11.254Z,156.08
2024-01-09T11:35:19.975Z,159.89
2024-01-09T11:38:26.792Z,152.04
2024-01-09T11:41:41.269Z,146.56
2024-01-09T11:44:47.942Z,170.48
2024-01-09T11:47:55.267Z,168.77
2024-01-09T11:51:03.523Z,146.12
2024-01-09T11:54:12.511Z,156.94
2024-01-09T11:57:23.346Z,161.11
2024-01-09T12:00:29.333Z,148.26
2024-01-09T12:03:36.002Z,125.92
2024-01-09T12:06:45.139Z,123.36
2024-01-09T12:09:53.140Z,133.37
2024-01-09T12:13:08.340Z,131.42
2024-01-09T12:16:23.150Z,134.71
2024-01-09T12:19:28.862Z,140.78
2024-01-09T12:22:37.559Z,138.35
2024-01-09T12:25:45.572Z,148.12
2024-01-09T12:28:56.402Z,161.53
2024-01-09T12:32:02.188Z,159.60
2024-01-09T12:35:09.296Z,165.10
2024-01-09T12:38:15.398Z,160.63
2024-01-09T12:41:25.978Z,155.87
2024-01-09T12:44:35.280Z,147.68
2024-01-09T12:47:41.891Z,129.17
2024-01-09T12:50:47.721Z,129.10
2024-01-09T12:53:54.276Z,133.53
2024-01-09T12:57:02.080Z,129.79
2024-01-09T13:00:13.583Z,126.05
2024-01-09T13:03:19.815Z,141.13
2024-01-09T13:06:28.036Z,129.64
2024-01-09T13:09:34.726Z,135.63
2024-01-09T13:12:41.337Z,209.65
2024-01-09T13:15:50.317Z,196.17
2024-01-09T13:18:57.238Z,169.45
2024-01-09T13:25:13.305Z,750.89
2024-01-09T13:28:19.324Z,218.05
2024-01-09T13:31:28.653Z,171.86
2024-01-09T13:34:35.642Z,181.22
2024-01-09T13:37:42.306Z,164.35
2024-01-09T13:40:50.031Z,155.49
2024-01-09T13:43:56.829Z,165.54
2024-01-09T13:47:05.259Z,148.39
2024-01-09T13:51:47.177Z,186.60
2024-01-09T13:53:39.044Z,213.44
2024-01-09T13:56:45.697Z,214.72
2024-01-09T13:59:51.563Z,225.02
2024-01-09T14:03:01.470Z,246.37
2024-01-09T14:06:08.342Z,261.79
2024-01-09T14:09:14.968Z,270.55
2024-01-09T14:12:22.116Z,274.92
2024-01-09T14:15:28.699Z,327.63
2024-01-09T14:18:38.844Z,371.71
2024-01-09T14:21:47.065Z,373.19
2024-01-09T14:24:53.048Z,409.51
2024-01-09T14:27:59.803Z,385.27
2024-01-09T14:31:05.631Z,360.64
2024-01-09T14:34:18.296Z,338.22
2024-01-09T14:37:25.570Z,383.68
2024-01-09T14:40:32.310Z,414.72
2024-01-09T14:43:39.752Z,415.11
2024-01-09T14:46:49.971Z,608.30
2024-01-09T14:49:58.359Z,552.41
2024-01-09T14:53:05.109Z,505.51
2024-01-09T14:56:11.003Z,531.42
2024-01-09T14:59:18.152Z,532.28
2024-01-09T15:02:24.420Z,528.57
2024-01-09T15:05:34.587Z,562.39
2024-01-09T15:08:40.524Z,748.96
2024-01-09T15:11:46.996Z,1024.39
2024-01-09T15:14:52.738Z,722.21
2024-01-09T15:18:00.771Z,953.18
2024-01-09T15:21:09.478Z,5267.84
2024-01-09T15:24:16.202Z,1592.22
2024-01-09T15:27:23.124Z,661.38
2024-01-09T15:30:29.638Z,557.18
2024-01-09T15:33:37.076Z,551.00
2024-01-09T15:36:46.543Z,599.64
2024-01-09T15:39:52.240Z,713.29
2024-01-09T15:42:59.177Z,751.96
2024-01-09T15:46:05.192Z,605.15
2024-01-09T15:49:11.842Z,615.27
2024-01-09T15:52:20.375Z,690.56
2024-01-09T15:55:27.382Z,830.46
2024-01-09T15:58:33.135Z,785.24
2024-01-09T16:01:41.753Z,716.29
2024-01-09T16:04:47.464Z,742.06
2024-01-09T16:07:56.869Z,702.75
2024-01-09T16:11:05.504Z,699.19
2024-01-09T16:14:12.218Z,693.04
2024-01-09T16:17:23.270Z,714.61
2024-01-09T16:20:29.842Z,849.41
2024-01-09T16:23:41.184Z,973.80
2024-01-09T16:26:47.757Z,898.90
2024-01-09T16:29:54.026Z,985.03
2024-01-09T16:33:00.661Z,972.73
2024-01-09T16:36:08.614Z,898.07
2024-01-09T16:39:19.683Z,956.11
2024-01-09T16:42:25.325Z,947.07
2024-01-09T16:45:31.903Z,902.32
2024-01-09T16:48:41.854Z,931.41
2024-01-09T16:51:52.321Z,919.54
2024-01-09T16:55:00.581Z,970.44
2024-01-09T16:58:07.581Z,953.40
2024-01-09T17:01:13.293Z,845.95
2024-01-09T17:04:20.664Z,786.89
2024-01-09T17:07:26.464Z,713.19
2024-01-09T17:10:35.762Z,712.76
2024-01-09T17:13:41.496Z,804.26
2024-01-09T17:16:51.552Z,852.19
2024-01-09T17:20:00.806Z,795.45
2024-01-09T17:23:08.166Z,791.08
2024-01-09T17:26:16.648Z,838.78
2024-01-09T17:29:23.526Z,861.96
2024-01-09T17:32:29.272Z,850.42
2024-01-09T17:35:36.588Z,944.92
2024-01-09T17:38:42.544Z,1066.15
2024-01-09T17:41:51.722Z,1190.77
2024-01-09T17:44:57.378Z,1212.45
2024-01-09T17:48:04.136Z,912.05
2024-01-09T17:51:10.015Z,798.46
2024-01-09T17:54:16.590Z,706.39
2024-01-09T17:57:25.068Z,691.66
2024-01-09T18:00:33.358Z,674.61
2024-01-09T18:03:39.576Z,705.43
2024-01-09T18:06:48.410Z,677.78
2024-01-09T18:09:54.204Z,657.22
2024-01-09T18:13:03.634Z,676.40
2024-01-09T18:16:14.175Z,674.30
2024-01-09T18:19:21.064Z,669.61
2024-01-09T18:22:26.973Z,681.44
2024-01-09T18:25:33.845Z,713.24
2024-01-09T18:28:45.336Z,733.77
2024-01-09T18:31:52.807Z,744.60
2024-01-09T18:34:59.325Z,1662.21
2024-01-09T18:38:06.188Z,1162.08
2024-01-09T18:41:11.933Z,883.76
2024-01-09T18:44:21.266Z,910.07
2024-01-09T18:47:27.111Z,742.15
2024-01-09T18:50:33.713Z,627.82
2024-01-09T18:53:40.476Z,556.66
2024-01-09T18:56:49.722Z,532.80
2024-01-09T18:59:59.167Z,478.17
2024-01-09T19:03:06.004Z,532.49
2024-01-09T19:06:11.780Z,754.28
2024-01-09T19:09:18.455Z,706.47
2024-01-09T19:12:24.154Z,576.27
2024-01-09T19:15:33.614Z,531.73
2024-01-09T19:18:40.000Z,515.51
2024-01-09T19:21:47.503Z,572.51
2024-01-09T19:24:53.232Z,1300.60
2024-01-09T19:27:59.736Z,2127.81
2024-01-09T19:31:08.810Z,1861.41
2024-01-09T19:34:16.073Z,1762.24
2024-01-09T19:37:21.846Z,1662.19
2024-01-09T19:40:29.675Z,849.41
2024-01-09T19:43:35.433Z,863.25
2024-01-09T19:46:45.924Z,846.78
2024-01-09T19:49:52.679Z,892.93
2024-01-09T19:52:59.317Z,901.43
2024-01-09T19:56:05.231Z,981.72
2024-01-09T19:59:12.113Z,951.27
2024-01-09T20:02:20.842Z,947.52
2024-01-09T20:05:27.661Z,969.79
2024-01-09T20:08:33.861Z,998.51
2024-01-09T20:11:40.792Z,922.09
2024-01-09T20:14:46.488Z,933.08
2024-01-09T20:17:55.857Z,884.03
2024-01-09T20:21:01.468Z,912.78
2024-01-09T20:24:08.765Z,1028.72
2024-01-09T20:27:14.520Z,1012.71
2024-01-09T20:30:22.494Z,1130.32
2024-01-09T20:33:31.176Z,1190.55
2024-01-09T20:36:37.875Z,1159.90
2024-01-09T20:39:43.993Z,1035.75
2024-01-09T20:42:52.222Z,898.81
2024-01-09T20:45:59.819Z,886.32
2024-01-09T20:49:09.310Z,914.13
2024-01-09T20:52:14.915Z,914.14
2024-01-09T20:55:22.925Z,933.21
2024-01-09T20:58:28.754Z,884.32
2024-01-09T21:01:39.313Z,838.48
2024-01-09T21:04:47.842Z,799.74
2024-01-09T21:07:54.497Z,839.32
2024-01-09T21:11:00.395Z,947.70
2024-01-09T21:14:07.252Z,1012.54
2024-01-09T21:17:13.268Z,1166.48
2024-01-09T21:20:22.700Z,2781.29
2024-01-09T21:23:35.398Z,4983.15
2024-01-09T21:26:47.991Z,1411.85
2024-01-09T21:29:53.681Z,1103.35
2024-01-09T21:33:00.620Z,922.65
2024-01-09T21:36:10.965Z,795.11
2024-01-09T21:39:17.537Z,767.30
2024-01-09T21:42:24.880Z,746.08
2024-01-09T21:45:31.521Z,962.25
2024-01-09T21:48:40.341Z,774.83
2024-01-09T21:51:49.593Z,732.86
2024-01-09T21:54:55.471Z,633.21
2024-01-09T21:58:03.484Z,590.20
2024-01-09T22:01:10.222Z,575.64
2024-01-09T22:04:17.228Z,582.38
2024-01-09T22:07:25.627Z,573.42
2024-01-09T22:10:33.366Z,569.65
2024-01-09T22:13:39.127Z,548.71
2024-01-09T22:16:46.984Z,558.82
2024-01-09T22:19:52.835Z,616.36
2024-01-09T22:23:02.030Z,668.99
2024-01-09T22:26:08.236Z,667.96
2024-01-09T22:29:14.894Z,608.27
2024-01-09T22:32:20.669Z,560.70
2024-01-09T22:35:27.287Z,524.51
2024-01-09T22:38:35.574Z,520.55
2024-01-09T22:41:42.188Z,550.47
2024-01-09T22:44:47.972Z,549.69
2024-01-09T22:47:54.566Z,593.09
2024-01-09T22:51:00.325Z,730.98
2024-01-09T22:54:09.785Z,706.08
2024-01-09T22:57:15.472Z,666.21
2024-01-09T23:00:24.074Z,703.86
2024-01-09T23:03:29.842Z,649.30
2024-01-09T23:06:36.527Z,651.62
2024-01-09T23:09:44.997Z,690.04
2024-01-09T23:12:51.958Z,779.51
2024-01-09T23:15:58.011Z,783.38
2024-01-09T23:19:04.726Z,732.69
2024-01-09T23:22:10.633Z,809.75
2024-01-09T23:25:19.931Z,815.30
2024-01-09T23:28:25.976Z,814.92
2024-01-09T23:31:32.735Z,936.66
2024-01-09T23:34:48.713Z,1010.36
2024-01-09T23:38:00.571Z,1003.07
2024-01-09T23:41:09.584Z,992.57
2024-01-09T23:44:16.342Z,1044.72
2024-01-09T23:47:22.304Z,1141.92
2024-01-09T23:50:29.240Z,1218.70
2024-01-09T23:53:34.972Z,1131.59
2024-01-09T23:56:44.143Z,1135.12
2024-01-09T23:59:49.855Z,1131.85
